Time;durP1;ratioP1;P1;durP2;ratioP2;P2;SDS_P1;SDS_P2;PMS_P1;PMS_P2;Temp;Humidity;BMP_temperature;BMP_pressure;BME280_temperature;BME280_humidity;BME280_pressure;Samples;Min_cycle;Max_cycle;Signal;HPM_P1;HPM_P2
2021/03/26 00:00:46;;;;;;;19.55;12.15;;;;;;;6.05;77.74;99380.47;4898909;29;20476;-76
2021/03/26 00:03:15;;;;;;;21.73;12.13;;;;;;;5.90;77.79;99382.00;4898647;29;20159;-76
2021/03/26 00:05:43;;;;;;;22.40;13.02;;;;;;;5.82;78.36;99386.19;4898814;29;20025;-76
2021/03/26 00:08:10;;;;;;;21.25;12.23;;;;;;;5.89;78.43;99380.25;4898627;29;20025;-76
2021/03/26 00:10:36;;;;;;;22.50;12.30;;;;;;;5.94;78.29;99377.78;4898718;29;20430;-76
2021/03/26 00:13:02;;;;;;;23.73;11.65;;;;;;;5.90;78.40;99384.59;4898410;29;20032;-76
2021/03/26 00:15:27;;;;;;;22.73;11.88;;;;;;;5.85;78.42;99378.53;4898176;29;20161;-76
2021/03/26 00:17:52;;;;;;;22.30;12.00;;;;;;;5.92;78.15;99380.34;4890798;29;20052;-75
2021/03/26 00:20:18;;;;;;;23.40;11.77;;;;;;;5.86;78.30;99380.25;4898583;29;20040;-76
2021/03/26 00:22:44;;;;;;;27.42;12.00;;;;;;;5.92;78.14;99382.91;4898194;29;20035;-76
2021/03/26 00:25:10;;;;;;;20.20;11.05;;;;;;;5.78;78.31;99376.72;4898350;29;20372;-76
2021/03/26 00:27:35;;;;;;;17.45;10.57;;;;;;;5.72;78.68;99368.94;4898330;29;20032;-76
2021/03/26 00:30:04;;;;;;;21.70;10.73;;;;;;;5.67;79.02;99373.19;4898301;29;20072;-76
2021/03/26 00:32:30;;;;;;;19.27;11.63;;;;;;;5.69;78.95;99381.75;4898012;29;20064;-76
2021/03/26 00:34:55;;;;;;;19.42;10.75;;;;;;;5.76;78.51;99388.72;4898237;29;20016;-76
2021/03/26 00:37:21;;;;;;;22.98;11.75;;;;;;;5.84;78.61;99381.94;4898093;29;20040;-76
2021/03/26 00:39:48;;;;;;;18.25;10.70;;;;;;;5.84;78.34;99381.06;4898129;29;20498;-76
2021/03/26 00:42:13;;;;;;;18.50;10.13;;;;;;;5.83;78.21;99375.06;4898077;29;20024;-76
2021/03/26 00:44:39;;;;;;;18.35;10.52;;;;;;;5.77;78.47;99367.28;4897807;29;20387;-76
2021/03/26 00:47:04;;;;;;;18.23;10.70;;;;;;;5.66;78.71;99367.19;4890003;29;20036;-76
2021/03/26 00:49:30;;;;;;;21.20;11.02;;;;;;;5.58;78.96;99370.50;4897884;29;20024;-76
2021/03/26 00:51:55;;;;;;;19.08;10.55;;;;;;;5.46;79.59;99365.22;4897685;29;20470;-76
2021/03/26 00:54:21;;;;;;;23.60;10.63;;;;;;;5.35;79.98;99368.50;4912438;29;20499;-75
2021/03/26 00:56:46;;;;;;;21.20;11.13;;;;;;;5.29;80.31;99365.00;4897773;29;20048;-76
2021/03/26 00:59:12;;;;;;;22.30;10.68;;;;;;;5.29;80.22;99371.00;4897709;29;20036;-76
2021/03/26 05:15:17;;;;;;;19.75;12.85;;;;;;;2.48;89.01;99322.41;5974099;23;21227;31
2021/03/26 05:18:09;;;;;;;25.83;12.98;;;;;;;2.62;88.68;99317.63;4876933;29;20534;-71
2021/03/26 05:20:45;;;;;;;23.17;13.02;;;;;;;2.58;88.27;99321.78;4878792;29;20390;-71
2021/03/26 05:23:24;;;;;;;21.63;12.60;;;;;;;2.57;88.35;99325.19;4878674;29;20025;-71
2021/03/26 05:25:52;;;;;;;22.42;12.77;;;;;;;2.46;88.61;99326.63;4877966;29;20025;-71
2021/03/26 05:28:23;;;;;;;25.45;12.27;;;;;;;2.43;88.48;99332.53;4878711;29;20554;-71
2021/03/26 05:30:49;;;;;;;24.98;12.30;;;;;;;2.40;88.47;99326.47;4879038;29;20033;-74
2021/03/26 05:33:21;;;;;;;23.85;12.65;;;;;;;2.44;88.34;99334.25;4878700;29;20044;-74
2021/03/26 05:35:57;;;;;;;28.17;13.18;;;;;;;2.42;88.51;99327.38;4878523;29;20032;-74
2021/03/26 05:38:32;;;;;;;20.67;13.10;;;;;;;2.44;88.54;99320.63;4878702;29;20033;-74
2021/03/26 05:41:08;;;;;;;24.75;12.73;;;;;;;2.54;88.26;99325.09;4878293;29;20073;-74
2021/03/26 05:44:04;;;;;;;24.20;13.05;;;;;;;2.60;88.24;99330.34;4846115;29;20572;-73
2021/03/26 05:46:42;;;;;;;26.23;12.57;;;;;;;2.70;87.83;99324.59;4896079;29;20450;-72
2021/03/26 05:49:23;;;;;;;26.48;12.35;;;;;;;2.84;87.83;99325.78;4878053;29;20087;-71
2021/03/26 05:52:02;;;;;;;21.40;13.10;;;;;;;3.00;87.41;99315.88;4904978;29;20025;-72
2021/03/26 05:54:56;;;;;;;28.73;14.65;;;;;;;3.07;87.06;99312.59;4880650;29;20048;-72
2021/03/26 05:58:03;;;;;;;27.60;12.85;;;;;;;3.14;86.08;99316.16;4889331;29;20120;-73
2021/03/26 06:00:57;;;;;;;22.73;12.32;;;;;;;3.00;86.20;99315.88;4887385;29;20087;-72
2021/03/26 06:04:00;;;;;;;22.33;13.20;;;;;;;3.08;85.55;99315.19;4896833;29;20040;-72
2021/03/26 06:06:34;;;;;;;28.63;13.20;;;;;;;3.32;84.64;99319.94;4896778;29;20071;-73
2021/03/26 06:09:14;;;;;;;23.38;11.93;;;;;;;3.54;83.50;99317.81;4876757;29;20044;-70
2021/03/26 06:11:51;;;;;;;22.00;12.55;;;;;;;3.95;81.79;99315.09;4905852;29;20475;-70
2021/03/26 06:14:20;;;;;;;24.90;13.02;;;;;;;4.22;80.00;99315.56;4878842;29;20044;-70
2021/03/26 06:17:09;;;;;;;24.10;12.85;;;;;;;4.53;79.17;99321.16;4904954;29;20036;-70
2021/03/26 06:20:04;;;;;;;23.17;12.50;;;;;;;5.28;76.42;99312.78;4881018;29;20048;-70
2021/03/26 06:23:00;;;;;;;22.95;12.68;;;;;;;6.70;70.93;99305.47;4892223;29;20149;-70
2021/03/26 06:25:50;;;;;;;20.13;11.10;;;;;;;7.94;66.08;99306.78;4886813;29;20072;-69
2021/03/26 06:28:25;;;;;;;27.60;11.55;;;;;;;7.61;66.50;99310.19;4896773;29;20031;-69
2021/03/26 06:31:12;;;;;;;24.40;11.73;;;;;;;7.84;65.73;99311.94;4873707;29;20045;-69
2021/03/26 06:33:50;;;;;;;20.08;10.40;;;;;;;7.97;64.45;99306.78;4873770;29;20029;-69
2021/03/26 06:36:38;;;;;;;21.73;10.55;;;;;;;8.31;64.80;99314.53;4909479;29;20115;-69
2021/03/26 06:39:39;;;;;;;16.85;10.02;;;;;;;7.53;66.06;99321.31;4880459;29;20099;-70
2021/03/26 06:42:26;;;;;;;24.25;10.02;;;;;;;8.63;63.05;99316.28;4906236;29;20064;-70
2021/03/26 06:45:00;;;;;;;15.60;10.30;;;;;;;8.28;63.15;99318.88;4886009;29;20048;-70
2021/03/26 06:47:35;;;;;;;22.55;10.93;;;;;;;7.34;66.66;99315.22;4903968;29;20032;-70
2021/03/26 06:50:29;;;;;;;18.05;10.57;;;;;;;7.73;66.06;99319.63;4887054;29;20071;-70
2021/03/26 06:53:12;;;;;;;22.60;11.82;;;;;;;7.71;66.53;99317.06;4900030;29;20037;-70
2021/03/26 06:56:14;;;;;;;20.45;10.93;;;;;;;8.42;64.39;99312.88;4877098;29;20037;-70
2021/03/26 06:59:13;;;;;;;18.30;9.98;;;;;;;9.22;61.69;99304.91;4877015;29;20108;-71
2021/03/26 07:02:06;;;;;;;20.55;10.25;;;;;;;9.61;61.60;99300.41;4874680;29;20119;-71
2021/03/26 07:04:41;;;;;;;14.48;9.95;;;;;;;9.21;62.20;99300.59;4873364;29;20053;-71
2021/03/26 07:07:43;;;;;;;15.10;10.85;;;;;;;8.03;65.97;99307.69;4904618;29;20028;-71
2021/03/26 07:10:30;;;;;;;19.50;10.35;;;;;;;7.97;66.55;99304.19;4875820;29;20041;-71
2021/03/26 07:13:16;;;;;;;17.35;11.18;;;;;;;7.88;67.39;99309.38;4891081;29;20028;-71
2021/03/26 07:16:03;;;;;;;18.75;11.40;;;;;;;7.82;68.50;99304.19;4890088;29;20130;-71
2021/03/26 07:18:28;;;;;;;19.23;11.38;;;;;;;7.43;69.06;99305.81;4899044;29;20035;-71
2021/03/26 07:21:29;;;;;;;20.13;11.70;;;;;;;8.27;66.99;99307.69;4890303;29;20044;-71
2021/03/26 07:24:06;;;;;;;18.35;11.55;;;;;;;9.15;63.37;99300.63;4875983;29;20044;-71
2021/03/26 07:27:01;;;;;;;18.63;11.13;;;;;;;9.14;63.96;99301.50;4898427;29;20032;-71
2021/03/26 07:29:29;;;;;;;17.92;10.48;;;;;;;10.38;60.59;99286.06;4872060;29;20573;-71
2021/03/26 07:32:07;;;;;;;21.45;10.52;;;;;;;10.94;58.71;99289.81;4900911;29;20039;-71
2021/03/26 07:35:02;;;;;;;21.83;11.48;;;;;;;11.89;55.16;99291.19;4867539;29;20041;-71
2021/03/26 07:37:31;;;;;;;23.23;11.20;;;;;;;10.58;57.76;99297.97;4897706;29;20024;-71
2021/03/26 07:40:02;;;;;;;21.20;11.93;;;;;;;10.23;59.73;99296.53;4869476;29;20406;-71
2021/03/26 07:42:40;;;;;;;21.15;10.40;;;;;;;11.58;55.92;99290.75;4898929;29;20040;-71
2021/03/26 07:45:47;;;;;;;16.30;10.43;;;;;;;12.52;52.77;99293.66;4879447;29;20087;-72
2021/03/26 07:48:21;;;;;;;22.92;11.35;;;;;;;10.57;57.54;99298.84;4893585;29;20021;-71
2021/03/26 07:51:19;;;;;;;16.42;12.02;;;;;;;9.80;60.81;99307.19;4889915;29;20517;-72
2021/03/26 07:54:11;;;;;;;19.15;11.35;;;;;;;11.36;58.00;99290.16;4864250;29;20055;-71
2021/03/26 07:56:37;;;;;;;17.65;11.50;;;;;;;11.43;56.87;99291.81;4909243;29;20115;-71
2021/03/26 07:59:30;;;;;;;16.80;11.15;;;;;;;11.17;56.95;99288.69;4874874;29;20467;-71
2021/03/26 08:02:15;;;;;;;19.70;11.25;;;;;;;10.98;58.20;99283.72;4904318;29;20103;-71
2021/03/26 08:04:53;;;;;;;20.63;11.93;;;;;;;10.86;59.36;99281.25;4882139;29;20043;-71
2021/03/26 08:07:45;;;;;;;24.30;12.75;;;;;;;10.88;59.27;99282.13;4904224;29;20031;-71
2021/03/26 08:10:26;;;;;;;22.20;13.50;;;;;;;10.30;60.94;99287.88;4886041;29;20092;-70
2021/03/26 08:13:19;;;;;;;21.20;12.38;;;;;;;10.69;60.01;99270.25;4899300;29;20024;-70
2021/03/26 08:16:15;;;;;;;27.40;13.25;;;;;;;10.14;61.58;99281.06;4889253;29;20048;-69
2021/03/26 08:19:08;;;;;;;30.67;14.13;;;;;;;10.51;60.56;99272.13;4898010;28;20036;-70
2021/03/26 08:21:46;;;;;;;30.00;12.63;;;;;;;12.87;55.39;99255.72;4908609;29;20363;-69
2021/03/26 08:24:26;;;;;;;20.48;11.93;;;;;;;15.05;48.28;99249.66;4884997;29;20072;-69
2021/03/26 08:27:19;;;;;;;17.65;10.82;;;;;;;16.29;43.89;99255.41;4914193;29;20105;-69
2021/03/26 08:30:03;;;;;;;23.77;12.75;;;;;;;16.39;43.61;99248.97;4889074;29;20127;-69
2021/03/26 08:32:40;;;;;;;20.08;12.00;;;;;;;17.37;42.81;99250.72;4900913;29;20029;-69
2021/03/26 08:35:43;;;;;;;18.00;11.77;;;;;;;16.85;42.01;99253.50;4876816;29;20072;-69
2021/03/26 08:38:40;;;;;;;16.45;11.25;;;;;;;16.79;42.85;99258.09;4893626;29;20387;-69
2021/03/26 08:41:18;;;;;;;19.90;11.60;;;;;;;18.71;39.45;99255.78;4886538;29;20064;-69
2021/03/26 08:43:53;;;;;;;18.92;11.75;;;;;;;18.21;39.61;99266.59;4892775;29;20064;-70
2021/03/26 08:46:36;;;;;;;19.67;10.90;;;;;;;20.28;36.47;99265.13;4889789;29;20056;-69
2021/03/26 08:49:37;;;;;;;20.75;12.20;;;;;;;18.30;39.39;99261.91;4868261;29;20028;-70
2021/03/26 08:52:19;;;;;;;16.52;11.02;;;;;;;21.34;34.75;99242.09;4871182;29;20121;-69
2021/03/26 08:54:53;;;;;;;20.48;11.80;;;;;;;20.64;34.44;99256.34;4879451;29;20036;-69
2021/03/26 08:57:46;;;;;;;17.40;11.40;;;;;;;19.59;36.75;99259.72;4903231;29;20025;-69
2021/03/26 09:00:49;;;;;;;17.65;10.60;;;;;;;23.26;32.23;99245.00;4883475;29;20040;-69
2021/03/26 09:03:22;;;;;;;18.15;10.88;;;;;;;21.94;32.49;99246.66;4896479;29;20024;-70
2021/03/26 09:06:09;;;;;;;15.27;9.98;;;;;;;21.91;32.94;99236.31;4896182;29;20049;-70
2021/03/26 09:09:06;;;;;;;23.50;10.27;;;;;;;24.09;29.13;99238.75;4904853;29;20033;-67
2021/03/26 09:11:37;;;;;;;17.23;10.38;;;;;;;24.61;28.59;99231.75;4904589;29;20520;-68
2021/03/26 09:14:29;;;;;;;15.73;9.93;;;;;;;25.33;27.44;99224.94;4882092;29;20072;-68
2021/03/26 09:17:00;;;;;;;14.27;10.20;;;;;;;23.41;29.76;99227.31;4882362;29;20063;-67
2021/03/26 09:19:47;;;;;;;16.35;8.73;;;;;;;26.21;26.74;99216.78;4843054;29;20042;-68
2021/03/26 09:22:24;;;;;;;12.43;8.57;;;;;;;25.48;27.21;99216.84;4872436;29;20036;-68
2021/03/26 09:25:17;;;;;;;13.70;9.38;;;;;;;24.92;27.23;99219.06;4841715;29;20455;-68
2021/03/26 09:27:51;;;;;;;12.45;7.55;;;;;;;27.07;24.52;99210.16;4909805;29;20031;-70
2021/03/26 09:30:27;;;;;;;11.75;8.65;;;;;;;26.23;26.29;99214.84;4884159;29;20050;-70
2021/03/26 09:32:58;;;;;;;13.57;6.95;;;;;;;27.00;24.37;99219.59;4898555;29;20037;-70
2021/03/26 09:35:36;;;;;;;15.65;9.52;;;;;;;23.51;29.44;99215.19;4885120;29;20048;-69
2021/03/26 09:38:25;;;;;;;11.43;8.18;;;;;;;26.26;25.13;99203.97;4898411;29;20040;-73
2021/03/26 09:41:01;;;;;;;15.55;8.10;;;;;;;24.21;28.17;99215.03;4867961;29;20041;-73
2021/03/26 09:43:58;;;;;;;14.95;8.00;;;;;;;27.29;23.68;99206.66;4896676;29;20032;-73
2021/03/26 09:46:44;;;;;;;12.57;8.10;;;;;;;25.10;25.06;99199.25;4893732;29;20016;-73
2021/03/26 09:49:28;;;;;;;9.40;7.07;;;;;;;27.37;22.99;99197.09;4864158;29;20048;-72
2021/03/26 09:52:17;;;;;;;14.75;6.88;;;;;;;27.51;23.10;99182.69;4906515;29;20025;-72
2021/03/26 09:54:52;;;;;;;10.90;6.70;;;;;;;27.03;23.78;99187.41;4890621;29;20378;-74
2021/03/26 09:57:17;;;;;;;12.02;7.18;;;;;;;28.78;21.20;99174.69;4902581;29;20024;-72
2021/03/26 10:00:20;;;;;;;13.17;6.97;;;;;;;29.76;20.10;99176.69;4874025;29;20077;-72
2021/03/26 10:02:58;;;;;;;11.93;7.00;;;;;;;28.87;20.42;99173.03;4896719;29;20611;-72
2021/03/26 10:05:57;;;;;;;18.17;8.57;;;;;;;26.97;22.67;99174.59;4884267;29;20048;-72
2021/03/26 10:11:42;;;;;;;11.57;7.65;;;;;;;26.82;22.78;99164.22;4873596;29;20506;-72
2021/03/26 10:14:41;;;;;;;11.20;7.80;;;;;;;21.15;30.27;99176.31;4871721;29;20372;-71
2021/03/26 10:17:34;;;;;;;12.45;8.30;;;;;;;22.91;28.92;99159.94;4897378;29;20502;-72
2021/03/26 10:20:12;;;;;;;10.32;7.90;;;;;;;25.62;25.27;99156.47;4880864;29;20050;-72
2021/03/26 10:23:02;;;;;;;12.50;8.05;;;;;;;25.32;25.22;99154.28;4904845;29;20123;-74
2021/03/26 10:26:09;;;;;;;11.38;6.97;;;;;;;26.52;24.22;99145.34;4887787;29;20626;-72
2021/03/26 10:28:43;;;;;;;15.90;8.02;;;;;;;26.94;23.31;99146.44;4894158;29;20044;-73
2021/03/26 10:31:13;;;;;;;16.40;8.07;;;;;;;26.25;23.35;99138.50;4889544;29;20490;-72
2021/03/26 10:33:52;;;;;;;14.65;7.82;;;;;;;24.91;25.76;99132.53;4900124;29;20029;-72
2021/03/26 10:36:30;;;;;;;12.15;7.78;;;;;;;27.70;22.41;99134.06;4879674;29;20032;-72
2021/03/26 10:39:11;;;;;;;13.32;7.53;;;;;;;28.25;22.13;99118.81;4882503;29;20024;-71
2021/03/26 10:41:54;;;;;;;10.68;6.65;;;;;;;28.28;20.30;99115.84;4912995;29;20032;-72
2021/03/26 10:45:01;;;;;;;8.77;6.57;;;;;;;27.35;21.97;99118.34;4885294;29;20079;-72
2021/03/26 10:47:28;;;;;;;14.57;7.35;;;;;;;27.38;23.12;99112.78;4902286;29;20115;-71
2021/03/26 10:50:00;;;;;;;17.27;7.88;;;;;;;27.01;21.91;99109.56;4879798;28;21008;-71
2021/03/26 10:52:45;;;;;;;10.27;6.85;;;;;;;27.04;22.36;99106.66;4902238;29;20032;-72
2021/03/26 10:55:17;;;;;;;12.93;7.35;;;;;;;28.10;21.08;99098.78;4874216;28;20041;-71
2021/03/26 10:58:13;;;;;;;14.30;6.80;;;;;;;25.41;24.79;99096.19;4894472;29;20549;-71
2021/03/26 11:00:50;;;;;;;11.75;7.40;;;;;;;27.19;22.47;99097.47;4872135;29;20048;-71
2021/03/26 11:03:21;;;;;;;11.00;6.50;;;;;;;28.02;21.95;99088.78;4894238;29;20028;-72
2021/03/26 11:05:51;;;;;;;7.28;6.07;;;;;;;27.95;21.68;99078.75;4885632;29;21296;-71
2021/03/26 11:08:24;;;;;;;;;;;;;;;26.23;23.47;99079.34;4896622;29;20028;-72
2021/03/26 11:10:59;;;;;;;12.20;6.93;;;;;;;22.61;27.69;99094.00;4873403;28;19920;-72
2021/03/26 11:13:53;;;;;;;12.38;7.38;;;;;;;20.28;30.79;99089.66;4897633;29;20033;-72
2021/03/26 11:16:29;;;;;;;16.10;6.70;;;;;;;21.49;30.07;99080.41;4866356;29;21626;-71
2021/03/26 11:19:03;;;;;;;13.30;7.03;;;;;;;21.37;29.30;99073.22;4895073;29;20081;-72
2021/03/26 11:21:50;;;;;;;12.48;6.35;;;;;;;23.40;27.34;99069.56;4892142;29;20108;-71
2021/03/26 11:24:16;;;;;;;12.88;7.50;;;;;;;25.08;24.94;99060.56;4869746;29;22588;-71
2021/03/26 11:26:50;;;;;;;13.98;6.55;;;;;;;26.61;22.97;99057.75;4904726;29;20076;-71
2021/03/26 11:29:28;;;;;;;11.55;6.15;;;;;;;25.51;23.88;99060.91;4870926;29;23067;-71
2021/03/26 11:31:59;;;;;;;14.82;5.90;;;;;;;23.43;24.62;99069.34;4903842;29;20028;-71
2021/03/26 11:34:48;;;;;;;8.95;5.60;;;;;;;23.37;25.75;99067.13;4870030;29;20044;-71
2021/03/26 11:37:29;;;;;;;7.13;5.38;;;;;;;24.58;23.79;99051.81;4888011;29;20056;-72
2021/03/26 11:40:15;;;;;;;8.50;4.55;;;;;;;24.57;23.53;99042.16;4869826;29;20040;-71
2021/03/26 11:42:47;;;;;;;11.93;7.13;;;;;;;23.46;26.96;99045.38;4888093;29;20152;-72
2021/03/26 11:45:24;;;;;;;22.45;12.10;;;;;;;25.58;24.37;99026.81;4871001;29;20040;-71
2021/03/26 11:48:10;;;;;;;10.20;5.85;;;;;;;25.69;23.64;99024.19;4888625;29;20032;-71
2021/03/26 11:51:19;;;;;;;13.02;7.22;;;;;;;21.92;28.78;99021.63;4873071;29;20059;-72
2021/03/26 11:53:45;;;;;;;;;;;;;;;23.61;26.50;99009.94;4887041;29;20116;-71
2021/03/26 11:56:29;;;;;;;12.33;6.20;;;;;;;24.91;24.55;98999.97;4880932;29;20500;-71
2021/03/26 11:59:36;;;;;;;10.68;6.20;;;;;;;21.71;28.29;99015.84;4890324;29;20107;-72
2021/03/26 12:02:08;;;;;;;10.20;6.15;;;;;;;23.17;26.58;99007.63;4880844;29;20040;-71
2021/03/26 12:04:40;;;;;;;8.05;5.93;;;;;;;24.67;25.68;98999.94;4868179;29;20126;-71
2021/03/26 12:07:14;;;;;;;12.48;6.50;;;;;;;25.60;23.41;98993.88;4901729;29;20032;-71
2021/03/26 12:09:54;;;;;;;15.52;6.22;;;;;;;24.04;25.69;98983.19;4876137;29;20040;-71
2021/03/26 12:12:29;;;;;;;12.68;5.03;;;;;;;24.27;26.07;98982.44;4902520;29;20020;-72
2021/03/26 12:15:05;;;;;;;13.23;5.40;;;;;;;22.43;26.32;98990.34;4878106;29;20035;-71
2021/03/26 12:17:48;;;;;;;10.75;4.57;;;;;;;21.21;27.95;98983.59;4901082;29;20738;-71
2021/03/26 12:20:16;;;;;;;7.90;4.57;;;;;;;21.27;28.30;98977.09;4881433;29;20040;-71
2021/03/26 12:23:03;;;;;;;6.57;3.72;;;;;;;20.74;29.59;98976.63;4900387;29;20087;-71
2021/03/26 12:25:38;;;;;;;7.53;3.72;;;;;;;20.54;28.96;98976.88;4885297;29;20044;-71
2021/03/26 12:28:38;;;;;;;10.52;3.50;;;;;;;20.64;29.41;98967.53;4901105;29;20033;-72
2021/03/26 12:31:16;;;;;;;8.68;3.97;;;;;;;20.16;28.80;98971.91;4862701;29;20094;-71
2021/03/26 12:33:54;;;;;;;4.10;2.67;;;;;;;19.83;28.17;98964.03;4898568;29;20442;-72
2021/03/26 12:36:32;;;;;;;6.65;2.60;;;;;;;19.84;28.74;98959.63;4889141;29;20044;-72
2021/03/26 12:39:24;;;;;;;5.90;3.42;;;;;;;19.72;29.52;98956.69;4898342;29;20092;-72
2021/03/26 12:41:53;;;;;;;10.10;3.50;;;;;;;19.68;28.96;98955.19;4897982;29;20040;-71
2021/03/26 12:44:42;;;;;;;6.22;3.45;;;;;;;19.85;29.78;98954.28;4876525;29;20036;-71
2021/03/26 12:47:32;;;;;;;9.70;4.00;;;;;;;19.69;30.29;98943.72;4901373;29;20063;-71
2021/03/26 12:50:19;;;;;;;8.52;4.05;;;;;;;19.94;30.01;98939.78;4881252;29;20068;-71
2021/03/26 12:53:13;;;;;;;8.82;4.18;;;;;;;19.83;30.42;98932.50;4903145;29;20459;-71
2021/03/26 12:55:52;;;;;;;4.65;3.90;;;;;;;19.61;30.62;98932.75;4883738;29;20103;-71
2021/03/26 12:58:59;;;;;;;7.68;4.80;;;;;;;19.96;29.82;98930.03;4899208;29;20032;-73
2021/03/26 13:01:39;;;;;;;12.25;4.80;;;;;;;19.84;29.94;98925.44;4863767;29;20098;-73
2021/03/26 13:04:12;;;;;;;9.18;4.60;;;;;;;19.12;31.17;98932.63;4890210;29;20060;-73
2021/03/26 13:06:42;;;;;;;8.90;4.30;;;;;;;19.04;31.27;98924.25;4897711;29;20059;-74
2021/03/26 13:09:19;;;;;;;9.80;4.78;;;;;;;19.11;31.47;98923.03;4880712;29;20048;-73
2021/03/26 13:11:50;;;;;;;8.82;5.30;;;;;;;19.40;30.63;98912.81;4897745;29;20522;-74
2021/03/26 13:14:23;;;;;;;11.38;7.03;;;;;;;19.50;31.11;98909.63;4875278;29;20028;-72
2021/03/26 13:16:50;;;;;;;8.85;4.78;;;;;;;19.81;30.18;98902.78;4909179;29;20028;-71
2021/03/26 13:19:26;;;;;;;9.98;4.97;;;;;;;19.81;29.69;98896.66;4875145;29;20102;-71
2021/03/26 13:22:22;;;;;;;8.75;5.63;;;;;;;20.07;31.10;98892.66;4909563;29;20049;-72
2021/03/26 13:24:55;;;;;;;8.25;4.63;;;;;;;19.82;30.84;98893.09;4878892;29;20052;-72
2021/03/26 13:27:20;;;;;;;12.55;4.90;;;;;;;19.51;31.04;98890.28;4905812;29;20040;-72
2021/03/26 13:30:00;;;;;;;8.13;4.30;;;;;;;19.08;31.02;98889.03;4878563;29;20084;-75
2021/03/26 13:32:37;;;;;;;7.00;4.15;;;;;;;19.16;31.69;98884.25;4905097;29;20075;-74
2021/03/26 13:35:06;;;;;;;11.77;4.97;;;;;;;19.41;30.88;98877.72;4880693;29;20063;-74
2021/03/26 13:37:39;;;;;;;9.23;4.57;;;;;;;19.92;30.94;98874.13;4904362;29;20039;-75
2021/03/26 13:40:15;;;;;;;9.07;4.18;;;;;;;19.76;30.38;98873.25;4880626;29;20031;-74
2021/03/26 13:42:49;;;;;;;8.13;3.88;;;;;;;19.79;31.07;98875.72;4903255;29;20379;-74
2021/03/26 13:45:22;;;;;;;11.52;5.22;;;;;;;18.91;32.88;98868.06;4876974;29;20553;-74
2021/03/26 13:47:52;;;;;;;8.95;4.25;;;;;;;18.77;33.01;98865.28;4900537;29;20040;-74
2021/03/26 13:50:21;;;;;;;5.20;4.10;;;;;;;19.08;31.79;98860.16;4872031;29;20052;-74
2021/03/26 13:53:03;;;;;;;8.95;4.70;;;;;;;19.68;31.46;98855.28;4892266;29;20088;-74
2021/03/26 13:55:34;;;;;;;9.38;4.13;;;;;;;20.09;29.52;98841.63;4879927;28;21310;-74
2021/03/26 13:58:34;;;;;;;7.95;4.03;;;;;;;20.23;29.40;98846.97;4899706;29;20572;-74
2021/03/26 14:01:18;;;;;;;12.80;8.73;;;;;;;20.35;29.02;98836.66;4874573;29;20196;-74
2021/03/26 14:03:49;;;;;;;8.50;4.13;;;;;;;20.56;29.53;98838.13;4892479;29;20112;-72
2021/03/26 14:06:25;;;;;;;10.40;3.60;;;;;;;20.34;30.08;98827.94;4870351;29;20053;-73
2021/03/26 14:08:53;;;;;;;7.65;3.35;;;;;;;19.94;30.10;98829.34;4887999;29;20119;-74
2021/03/26 14:11:50;;;;;;;7.30;3.33;;;;;;;18.96;30.04;98834.53;4870281;29;20044;-73
2021/03/26 14:14:15;;;;;;;6.78;3.20;;;;;;;19.04;30.20;98821.00;4871976;29;20028;-73
2021/03/26 14:16:40;;;;;;;5.88;3.05;;;;;;;18.98;30.52;98817.75;4892911;29;20040;-74
2021/03/26 14:19:15;;;;;;;6.07;3.33;;;;;;;18.89;30.29;98822.63;4892565;29;20391;-76
2021/03/26 14:21:58;;;;;;;7.60;3.13;;;;;;;18.68;30.75;98814.91;4896585;29;20265;-73
2021/03/26 14:24:44;;;;;;;6.97;3.05;;;;;;;19.19;29.81;98821.03;4856881;28;20143;-75
2021/03/26 14:27:13;;;;;;;5.97;2.90;;;;;;;19.47;28.71;98811.69;4891649;29;20079;-76
2021/03/26 14:29:52;;;;;;;3.47;2.95;;;;;;;19.19;28.46;98810.53;4858065;29;20133;-73
2021/03/26 14:32:24;;;;;;;7.53;2.90;;;;;;;18.96;29.95;98810.91;4890321;29;20036;-72
2021/03/26 14:35:02;;;;;;;22.35;12.07;;;;;;;19.06;30.26;98804.25;4846753;28;20048;-75
2021/03/26 14:37:33;;;;;;;7.28;3.90;;;;;;;18.85;31.03;98810.59;4871780;29;20521;-74
2021/03/26 14:40:31;;;;;;;7.05;3.88;;;;;;;18.87;30.87;98803.50;4793943;28;20052;-74
2021/03/26 14:43:06;;;;;;;5.10;3.00;;;;;;;18.72;30.69;98800.72;4861286;29;20481;-73
2021/03/26 14:45:46;;;;;;;4.53;2.60;;;;;;;18.72;30.02;98795.47;4841071;29;20095;-73
2021/03/26 14:48:26;;;;;;;5.78;2.45;;;;;;;18.77;29.51;98797.88;4857750;29;20036;-71
2021/03/26 14:51:13;;;;;;;6.70;2.88;;;;;;;18.68;29.61;98793.91;4816977;29;20132;-71
2021/03/26 14:53:47;;;;;;;8.10;2.63;;;;;;;18.76;30.11;98798.78;4847483;29;21379;-72
2021/03/26 14:56:22;;;;;;;7.35;3.22;;;;;;;19.13;30.17;98789.84;4851703;28;20051;-76
2021/03/26 14:58:55;;;;;;;11.30;3.67;;;;;;;19.18;30.11;98793.06;4857737;29;20028;-75
2021/03/26 15:01:43;;;;;;;5.55;3.30;;;;;;;19.35;30.48;98783.47;4839335;29;20092;-75
2021/03/26 15:04:18;;;;;;;4.65;3.10;;;;;;;19.39;30.03;98782.34;4857761;29;20561;-76
2021/03/26 15:06:57;;;;;;;4.30;2.45;;;;;;;19.32;29.42;98788.88;4867912;29;20071;-75
2021/03/26 15:09:39;;;;;;;6.50;3.17;;;;;;;19.53;28.91;98771.94;4845165;29;20386;-72
2021/03/26 15:12:23;;;;;;;2.97;2.20;;;;;;;19.20;28.37;98783.34;4870374;29;20181;-72
2021/03/26 15:15:20;;;;;;;3.53;2.08;;;;;;;19.35;27.90;98780.84;4847841;28;20078;-71
2021/03/26 15:18:13;;;;;;;3.67;2.20;;;;;;;19.07;28.89;98779.66;4878685;29;20118;-72
2021/03/26 15:20:41;;;;;;;3.97;2.13;;;;;;;18.96;29.27;98780.22;4862746;29;20044;-71
2021/03/26 15:23:25;;;;;;;5.05;2.50;;;;;;;18.79;29.34;98774.16;4890443;29;20064;-71
2021/03/26 15:26:17;;;;;;;5.82;2.25;;;;;;;18.96;29.46;98776.75;4873528;28;20071;-71
2021/03/26 15:29:11;;;;;;;9.45;5.28;;;;;;;18.77;29.03;98770.75;4888710;29;20037;-71
2021/03/26 15:32:04;;;;;;;3.78;2.28;;;;;;;18.85;29.78;98763.31;4867557;29;22073;-71
2021/03/26 15:34:32;;;;;;;4.78;2.20;;;;;;;19.05;29.76;98771.03;4869580;28;20092;-75
2021/03/26 15:37:19;;;;;;;4.57;2.80;;;;;;;18.70;30.30;98762.34;4895198;29;20043;-75
2021/03/26 15:39:50;;;;;;;3.70;2.22;;;;;;;18.84;30.24;98762.47;4873422;28;20054;-75
2021/03/26 15:42:15;;;;;;;4.28;2.35;;;;;;;18.60;29.81;98754.06;4906025;29;20092;-70
2021/03/26 15:44:52;;;;;;;5.82;2.35;;;;;;;18.93;29.99;98751.50;4869889;29;20044;-71
2021/03/26 15:47:30;;;;;;;4.03;2.17;;;;;;;18.92;29.93;98749.81;4907437;29;20348;-71
2021/03/26 15:50:23;;;;;;;3.75;2.17;;;;;;;18.44;29.17;98745.28;4880023;29;20513;-72
2021/03/26 15:52:54;;;;;;;4.90;2.67;;;;;;;18.14;29.83;98745.88;4905365;29;20028;-72
2021/03/26 15:55:35;;;;;;;5.38;1.90;;;;;;;18.18;30.96;98751.81;4881560;29;20040;-72
2021/03/26 15:58:34;;;;;;;6.82;2.40;;;;;;;18.11;30.91;98760.91;4903910;29;20037;-71
2021/03/26 16:01:19;;;;;;;4.10;2.65;;;;;;;17.81;30.77;98752.75;4887154;29;20482;-71
2021/03/26 16:04:30;;;;;;;3.95;2.17;;;;;;;17.77;30.25;98759.06;4898729;29;20032;-72
2021/03/26 16:07:01;;;;;;;6.53;2.47;;;;;;;17.79;31.04;98754.59;4894890;29;20052;-72
2021/03/26 16:09:36;;;;;;;8.00;3.47;;;;;;;17.67;30.10;98756.84;4869115;28;20028;-72
2021/03/26 16:12:17;;;;;;;5.80;2.47;;;;;;;17.47;30.05;98759.56;4908266;29;20083;-71
2021/03/26 16:15:04;;;;;;;5.25;2.60;;;;;;;17.47;30.17;98749.91;4870573;28;20075;-72
2021/03/26 16:17:51;;;;;;;5.95;2.78;;;;;;;17.45;30.73;98753.50;4896170;29;20047;-71
2021/03/26 16:20:31;;;;;;;7.38;2.60;;;;;;;17.36;31.09;98757.44;4861315;29;20051;-72
2021/03/26 16:23:07;;;;;;;;;;;;;;;17.29;31.63;98745.53;4884351;29;20115;-71
2021/03/26 16:25:36;;;;;;;4.40;2.92;;;;;;;17.25;31.72;98749.19;4859401;29;20385;-72
2021/03/26 16:28:29;;;;;;;3.45;2.60;;;;;;;17.11;31.99;98755.06;4883857;29;20574;-72
2021/03/26 16:31:34;;;;;;;5.60;2.83;;;;;;;17.04;32.55;98751.03;4861666;29;20052;-72
2021/03/26 16:34:30;;;;;;;6.32;2.80;;;;;;;16.99;32.38;98749.53;4881249;29;20032;-72
2021/03/26 16:37:23;;;;;;;7.43;2.65;;;;;;;17.01;32.95;98750.31;4878637;29;20485;-72
2021/03/26 16:39:57;;;;;;;5.50;2.88;;;;;;;17.09;33.10;98756.91;4854329;29;20561;-72
2021/03/26 16:42:45;;;;;;;6.43;2.63;;;;;;;17.06;32.37;98738.69;4875326;29;20036;-72
2021/03/26 16:45:19;;;;;;;6.60;2.90;;;;;;;17.00;32.54;98746.84;4847187;29;20072;-72